sensor_id;sensor_type;location;lat;lon;timestamp;pressure;altitude;pressure_sealevel;temperature;humidity
36138;BME280;67787;50.074;21.904;2024-01-06T00:01:23;98208.54;;;0.82;77.47
36138;BME280;67787;50.074;21.904;2024-01-06T00:03:51;98206.89;;;0.84;77.43
36138;BME280;67787;50.074;21.904;2024-01-06T00:06:19;98210.34;;;0.84;77.13
36138;BME280;67787;50.074;21.904;2024-01-06T00:08:47;98211.52;;;0.86;77.37
36138;BME280;67787;50.074;21.904;2024-01-06T00:11:22;98210.95;;;0.86;77.21
36138;BME280;67787;50.074;21.904;2024-01-06T00:13:50;98215.52;;;0.86;77.26
36138;BME280;67787;50.074;21.904;2024-01-06T00:16:21;98217.89;;;0.83;77.36
36138;BME280;67787;50.074;21.904;2024-01-06T00:18:50;98216.19;;;0.83;77.43
36138;BME280;67787;50.074;21.904;2024-01-06T00:21:19;98216.95;;;0.82;77.26
36138;BME280;67787;50.074;21.904;2024-01-06T00:23:46;98220.17;;;0.80;77.35
36138;BME280;67787;50.074;21.904;2024-01-06T00:26:14;98222.11;;;0.79;77.46
36138;BME280;67787;50.074;21.904;2024-01-06T00:28:42;98223.15;;;0.80;77.41
36138;BME280;67787;50.074;21.904;2024-01-06T00:31:10;98220.10;;;0.81;77.50
36138;BME280;67787;50.074;21.904;2024-01-06T00:33:38;98215.59;;;0.81;77.40
36138;BME280;67787;50.074;21.904;2024-01-06T00:36:07;98217.81;;;0.81;77.30
36138;BME280;67787;50.074;21.904;2024-01-06T00:38:35;98219.36;;;0.82;77.75
36138;BME280;67787;50.074;21.904;2024-01-06T00:41:03;98221.44;;;0.82;77.35
36138;BME280;67787;50.074;21.904;2024-01-06T00:43:31;98219.59;;;0.84;77.50
36138;BME280;67787;50.074;21.904;2024-01-06T00:45:59;98223.24;;;0.85;77.51
36138;BME280;67787;50.074;21.904;2024-01-06T00:48:27;98217.79;;;0.82;77.39
36138;BME280;67787;50.074;21.904;2024-01-06T00:50:55;98217.43;;;0.82;77.64
36138;BME280;67787;50.074;21.904;2024-01-06T00:53:22;98223.11;;;0.84;77.70
36138;BME280;67787;50.074;21.904;2024-01-06T00:55:50;98220.77;;;0.86;77.55
36138;BME280;67787;50.074;21.904;2024-01-06T00:58:18;98222.73;;;0.88;77.56
36138;BME280;67787;50.074;21.904;2024-01-06T01:00:46;98220.77;;;0.89;77.55
36138;BME280;67787;50.074;21.904;2024-01-06T01:03:14;98217.12;;;0.89;77.59
36138;BME280;67787;50.074;21.904;2024-01-06T01:05:42;98219.63;;;0.88;77.88
36138;BME280;67787;50.074;21.904;2024-01-06T01:08:10;98219.81;;;0.87;77.68
36138;BME280;67787;50.074;21.904;2024-01-06T01:10:38;98225.05;;;0.91;77.57
36138;BME280;67787;50.074;21.904;2024-01-06T01:13:06;98221.20;;;0.95;77.67
36138;BME280;67787;50.074;21.904;2024-01-06T01:15:34;98218.81;;;1.01;77.69
36138;BME280;67787;50.074;21.904;2024-01-06T01:18:02;98218.16;;;1.04;77.68
36138;BME280;67787;50.074;21.904;2024-01-06T01:20:30;98226.93;;;1.07;77.63
36138;BME280;67787;50.074;21.904;2024-01-06T01:22:58;98225.50;;;1.11;77.56
36138;BME280;67787;50.074;21.904;2024-01-06T01:25:26;98219.14;;;1.13;77.54
36138;BME280;67787;50.074;21.904;2024-01-06T01:27:54;98216.70;;;1.13;77.53
36138;BME280;67787;50.074;21.904;2024-01-06T01:30:22;98208.02;;;1.15;77.82
36138;BME280;67787;50.074;21.904;2024-01-06T01:32:50;98204.31;;;1.17;77.93
36138;BME280;67787;50.074;21.904;2024-01-06T01:35:18;98202.08;;;1.19;77.55
36138;BME280;67787;50.074;21.904;2024-01-06T01:37:46;98198.97;;;1.22;77.48
36138;BME280;67787;50.074;21.904;2024-01-06T01:40:14;98200.34;;;1.26;77.65
36138;BME280;67787;50.074;21.904;2024-01-06T01:42:43;98201.85;;;1.28;77.78
36138;BME280;67787;50.074;21.904;2024-01-06T01:45:11;98195.91;;;1.28;77.64
36138;BME280;67787;50.074;21.904;2024-01-06T01:47:40;98194.62;;;1.29;77.70
36138;BME280;67787;50.074;21.904;2024-01-06T01:50:09;98194.86;;;1.31;77.90
36138;BME280;67787;50.074;21.904;2024-01-06T01:52:39;98197.48;;;1.35;77.94
36138;BME280;67787;50.074;21.904;2024-01-06T01:55:08;98193.85;;;1.38;77.90
36138;BME280;67787;50.074;21.904;2024-01-06T01:57:36;98194.83;;;1.39;77.85
36138;BME280;67787;50.074;21.904;2024-01-06T02:00:06;98190.29;;;1.39;77.87
36138;BME280;67787;50.074;21.904;2024-01-06T02:02:34;98188.59;;;1.38;77.95
36138;BME280;67787;50.074;21.904;2024-01-06T02:05:02;98197.77;;;1.36;77.82
36138;BME280;67787;50.074;21.904;2024-01-06T02:07:30;98201.47;;;1.36;77.78
36138;BME280;67787;50.074;21.904;2024-01-06T02:09:58;98207.31;;;1.38;77.59
36138;BME280;67787;50.074;21.904;2024-01-06T02:12:26;98204.59;;;1.40;77.69
36138;BME280;67787;50.074;21.904;2024-01-06T02:14:54;98201.95;;;1.44;78.08
36138;BME280;67787;50.074;21.904;2024-01-06T02:17:22;98191.63;;;1.44;77.79
36138;BME280;67787;50.074;21.904;2024-01-06T02:19:50;98185.88;;;1.40;77.75
36138;BME280;67787;50.074;21.904;2024-01-06T02:22:18;98186.30;;;1.39;78.04
36138;BME280;67787;50.074;21.904;2024-01-06T02:24:46;98186.48;;;1.35;77.74
36138;BME280;67787;50.074;21.904;2024-01-06T02:27:14;98187.65;;;1.32;77.83
36138;BME280;67787;50.074;21.904;2024-01-06T02:29:42;98192.12;;;1.33;77.92
36138;BME280;67787;50.074;21.904;2024-01-06T02:32:10;98195.41;;;1.34;77.79
36138;BME280;67787;50.074;21.904;2024-01-06T02:34:37;98194.16;;;1.35;77.75
36138;BME280;67787;50.074;21.904;2024-01-06T02:37:06;98186.20;;;1.37;77.85
36138;BME280;67787;50.074;21.904;2024-01-06T02:39:34;98181.13;;;1.37;78.02
36138;BME280;67787;50.074;21.904;2024-01-06T02:42:02;98175.28;;;1.39;77.84
36138;BME280;67787;50.074;21.904;2024-01-06T02:44:30;98167.32;;;1.41;77.94
36138;BME280;67787;50.074;21.904;2024-01-06T02:46:57;98166.34;;;1.43;78.07
36138;BME280;67787;50.074;21.904;2024-01-06T02:49:25;98156.95;;;1.45;77.96
36138;BME280;67787;50.074;21.904;2024-01-06T02:51:53;98160.53;;;1.47;78.08
36138;BME280;67787;50.074;21.904;2024-01-06T02:54:21;98162.77;;;1.48;78.00
36138;BME280;67787;50.074;21.904;2024-01-06T02:56:49;98164.90;;;1.51;78.28
36138;BME280;67787;50.074;21.904;2024-01-06T02:59:17;98161.73;;;1.55;78.18
36138;BME280;67787;50.074;21.904;2024-01-06T03:01:44;98164.58;;;1.58;77.90
36138;BME280;67787;50.074;21.904;2024-01-06T03:04:12;98166.36;;;1.60;78.13
36138;BME280;67787;50.074;21.904;2024-01-06T03:06:40;98157.63;;;1.63;78.46
36138;BME280;67787;50.074;21.904;2024-01-06T03:09:08;98163.83;;;1.62;78.25
36138;BME280;67787;50.074;21.904;2024-01-06T03:11:36;98157.27;;;1.64;78.17
36138;BME280;67787;50.074;21.904;2024-01-06T03:14:03;98155.14;;;1.68;78.19
36138;BME280;67787;50.074;21.904;2024-01-06T03:16:31;98154.81;;;1.71;78.16
36138;BME280;67787;50.074;21.904;2024-01-06T03:19:01;98158.70;;;1.74;78.49
36138;BME280;67787;50.074;21.904;2024-01-06T03:21:29;98152.73;;;1.77;78.49
36138;BME280;67787;50.074;21.904;2024-01-06T03:23:57;98152.86;;;1.82;78.21
36138;BME280;67787;50.074;21.904;2024-01-06T03:26:25;98146.67;;;1.83;78.37
36138;BME280;67787;50.074;21.904;2024-01-06T03:28:54;98147.13;;;1.85;78.53
36138;BME280;67787;50.074;21.904;2024-01-06T03:31:22;98147.46;;;1.85;78.51
36138;BME280;67787;50.074;21.904;2024-01-06T03:33:50;98145.66;;;1.83;78.33
36138;BME280;67787;50.074;21.904;2024-01-06T03:36:21;98146.46;;;1.84;78.44
36138;BME280;67787;50.074;21.904;2024-01-06T03:38:49;98148.05;;;1.87;78.23
36138;BME280;67787;50.074;21.904;2024-01-06T03:41:17;98152.70;;;1.88;78.58
36138;BME280;67787;50.074;21.904;2024-01-06T03:43:45;98156.05;;;1.91;78.33
36138;BME280;67787;50.074;21.904;2024-01-06T03:46:13;98158.83;;;1.91;78.41
36138;BME280;67787;50.074;21.904;2024-01-06T03:48:40;98167.98;;;1.95;78.34
36138;BME280;67787;50.074;21.904;2024-01-06T03:51:09;98166.90;;;1.94;78.28
36138;BME280;67787;50.074;21.904;2024-01-06T03:53:37;98167.34;;;1.92;78.63
36138;BME280;67787;50.074;21.904;2024-01-06T03:56:05;98163.73;;;1.91;78.48
36138;BME280;67787;50.074;21.904;2024-01-06T03:58:33;98160.23;;;1.88;78.42
36138;BME280;67787;50.074;21.904;2024-01-06T04:01:01;98159.82;;;1.82;78.56
36138;BME280;67787;50.074;21.904;2024-01-06T04:03:29;98162.68;;;1.78;78.25
36138;BME280;67787;50.074;21.904;2024-01-06T04:05:57;98168.65;;;1.77;78.48
36138;BME280;67787;50.074;21.904;2024-01-06T04:08:25;98175.71;;;1.76;78.43
36138;BME280;67787;50.074;21.904;2024-01-06T04:10:53;98177.09;;;1.76;78.18
36138;BME280;67787;50.074;21.904;2024-01-06T04:13:20;98169.65;;;1.75;78.19
36138;BME280;67787;50.074;21.904;2024-01-06T04:15:48;98164.09;;;1.71;78.19
36138;BME280;67787;50.074;21.904;2024-01-06T04:18:16;98165.45;;;1.71;78.57
36138;BME280;67787;50.074;21.904;2024-01-06T04:20:44;98170.79;;;1.73;78.56
36138;BME280;67787;50.074;21.904;2024-01-06T04:23:12;98180.52;;;1.74;78.57
36138;BME280;67787;50.074;21.904;2024-01-06T04:25:40;98183.30;;;1.78;78.30
36138;BME280;67787;50.074;21.904;2024-01-06T04:28:08;98184.51;;;1.82;78.56
36138;BME280;67787;50.074;21.904;2024-01-06T04:30:35;98184.97;;;1.83;78.44
36138;BME280;67787;50.074;21.904;2024-01-06T04:33:04;98181.11;;;1.83;78.63
36138;BME280;67787;50.074;21.904;2024-01-06T04:35:31;98179.86;;;1.84;78.47
36138;BME280;67787;50.074;21.904;2024-01-06T04:37:59;98179.14;;;1.84;78.48
36138;BME280;67787;50.074;21.904;2024-01-06T04:40:27;98168.44;;;1.85;78.43
36138;BME280;67787;50.074;21.904;2024-01-06T04:42:55;98164.50;;;1.87;78.57
36138;BME280;67787;50.074;21.904;2024-01-06T04:45:23;98165.20;;;1.87;78.56
36138;BME280;67787;50.074;21.904;2024-01-06T04:47:52;98162.86;;;1.88;78.78
36138;BME280;67787;50.074;21.904;2024-01-06T04:50:20;98165.17;;;1.90;78.62
36138;BME280;67787;50.074;21.904;2024-01-06T04:52:48;98164.25;;;1.91;78.69
36138;BME280;67787;50.074;21.904;2024-01-06T04:55:16;98164.14;;;1.94;78.26
36138;BME280;67787;50.074;21.904;2024-01-06T04:57:44;98164.12;;;1.98;78.69
36138;BME280;67787;50.074;21.904;2024-01-06T05:00:12;98164.78;;;2.02;78.56
36138;BME280;67787;50.074;21.904;2024-01-06T05:02:40;98168.41;;;2.06;78.76
36138;BME280;67787;50.074;21.904;2024-01-06T05:05:09;98172.14;;;2.08;78.75
36138;BME280;67787;50.074;21.904;2024-01-06T05:07:37;98168.56;;;2.10;78.57
36138;BME280;67787;50.074;21.904;2024-01-06T05:10:05;98165.53;;;2.11;78.93
36138;BME280;67787;50.074;21.904;2024-01-06T05:12:33;98163.03;;;2.12;78.65
36138;BME280;67787;50.074;21.904;2024-01-06T05:15:01;98162.30;;;2.12;78.41
36138;BME280;67787;50.074;21.904;2024-01-06T05:17:29;98154.38;;;2.14;78.48
36138;BME280;67787;50.074;21.904;2024-01-06T05:19:57;98147.36;;;2.14;78.73
36138;BME280;67787;50.074;21.904;2024-01-06T05:22:25;98152.50;;;2.16;78.57
36138;BME280;67787;50.074;21.904;2024-01-06T05:24:53;98157.84;;;2.14;78.64
36138;BME280;67787;50.074;21.904;2024-01-06T05:27:21;98162.09;;;2.10;78.49
36138;BME280;67787;50.074;21.904;2024-01-06T05:29:49;98165.63;;;2.05;78.73
36138;BME280;67787;50.074;21.904;2024-01-06T05:32:19;98169.73;;;2.07;78.63
36138;BME280;67787;50.074;21.904;2024-01-06T05:34:48;98172.05;;;2.10;78.66
36138;BME280;67787;50.074;21.904;2024-01-06T05:37:17;98172.31;;;2.12;78.69
36138;BME280;67787;50.074;21.904;2024-01-06T05:39:44;98164.41;;;2.15;78.90
36138;BME280;67787;50.074;21.904;2024-01-06T05:42:12;98159.32;;;2.19;78.94
36138;BME280;67787;50.074;21.904;2024-01-06T05:44:40;98157.44;;;2.21;78.91
36138;BME280;67787;50.074;21.904;2024-01-06T05:47:08;98160.08;;;2.22;78.88
36138;BME280;67787;50.074;21.904;2024-01-06T05:49:41;98165.02;;;2.20;78.84
36138;BME280;67787;50.074;21.904;2024-01-06T05:52:10;98172.20;;;2.24;78.68
36138;BME280;67787;50.074;21.904;2024-01-06T05:54:41;98172.27;;;2.26;79.04
36138;BME280;67787;50.074;21.904;2024-01-06T05:57:12;98170.75;;;2.28;78.76
36138;BME280;67787;50.074;21.904;2024-01-06T05:59:40;98172.77;;;2.30;78.69
36138;BME280;67787;50.074;21.904;2024-01-06T06:02:08;98175.41;;;2.33;78.71
36138;BME280;67787;50.074;21.904;2024-01-06T06:04:36;98179.80;;;2.36;78.77
36138;BME280;67787;50.074;21.904;2024-01-06T06:07:04;98177.19;;;2.39;78.82
36138;BME280;67787;50.074;21.904;2024-01-06T06:09:32;98177.73;;;2.42;78.81
36138;BME280;67787;50.074;21.904;2024-01-06T06:12:02;98173.29;;;2.43;78.80
36138;BME280;67787;50.074;21.904;2024-01-06T06:14:30;98172.96;;;2.43;78.77
36138;BME280;67787;50.074;21.904;2024-01-06T06:16:58;98175.95;;;2.42;78.80
36138;BME280;67787;50.074;21.904;2024-01-06T06:19:26;98178.65;;;2.41;78.67
36138;BME280;67787;50.074;21.904;2024-01-06T06:21:54;98183.20;;;2.41;78.88
36138;BME280;67787;50.074;21.904;2024-01-06T06:24:22;98190.63;;;2.43;79.00
36138;BME280;67787;50.074;21.904;2024-01-06T06:26:50;98190.30;;;2.42;78.79
36138;BME280;67787;50.074;21.904;2024-01-06T06:29:18;98193.14;;;2.45;79.07
36138;BME280;67787;50.074;21.904;2024-01-06T06:31:45;98187.27;;;2.47;78.97
36138;BME280;67787;50.074;21.904;2024-01-06T06:34:14;98180.52;;;2.48;78.86
36138;BME280;67787;50.074;21.904;2024-01-06T06:36:42;98187.11;;;2.50;79.05
36138;BME280;67787;50.074;21.904;2024-01-06T06:39:10;98185.33;;;2.50;78.94
36138;BME280;67787;50.074;21.904;2024-01-06T06:41:38;98182.04;;;2.52;78.63
36138;BME280;67787;50.074;21.904;2024-01-06T06:44:06;98183.75;;;2.53;78.96
36138;BME280;67787;50.074;21.904;2024-01-06T06:46:34;98185.13;;;2.54;78.92
36138;BME280;67787;50.074;21.904;2024-01-06T06:49:01;98188.97;;;2.54;78.57
36138;BME280;67787;50.074;21.904;2024-01-06T06:51:30;98194.01;;;2.51;78.82
36138;BME280;67787;50.074;21.904;2024-01-06T06:53:58;98193.42;;;2.53;78.90
36138;BME280;67787;50.074;21.904;2024-01-06T06:56:26;98191.77;;;2.54;78.93
36138;BME280;67787;50.074;21.904;2024-01-06T06:58:54;98194.00;;;2.55;79.10
36138;BME280;67787;50.074;21.904;2024-01-06T07:01:22;98191.29;;;2.53;78.97
36138;BME280;67787;50.074;21.904;2024-01-06T07:03:50;98194.30;;;2.56;79.18
36138;BME280;67787;50.074;21.904;2024-01-06T07:06:18;98198.63;;;2.60;79.12
36138;BME280;67787;50.074;21.904;2024-01-06T07:08:45;98200.23;;;2.63;79.20
36138;BME280;67787;50.074;21.904;2024-01-06T07:11:13;98197.20;;;2.67;79.45
36138;BME280;67787;50.074;21.904;2024-01-06T07:13:43;98194.80;;;2.69;79.00
36138;BME280;67787;50.074;21.904;2024-01-06T07:16:10;98191.27;;;2.70;79.15
36138;BME280;67787;50.074;21.904;2024-01-06T07:18:46;98197.77;;;2.69;79.27
36138;BME280;67787;50.074;21.904;2024-01-06T07:21:14;98206.27;;;2.71;79.18
36138;BME280;67787;50.074;21.904;2024-01-06T07:23:42;98210.63;;;2.72;79.31
36138;BME280;67787;50.074;21.904;2024-01-06T07:26:10;98208.70;;;2.72;79.15
36138;BME280;67787;50.074;21.904;2024-01-06T07:28:38;98209.70;;;2.72;79.10
36138;BME280;67787;50.074;21.904;2024-01-06T07:31:06;98211.76;;;2.73;79.25
36138;BME280;67787;50.074;21.904;2024-01-06T07:33:34;98215.20;;;2.71;79.21
36138;BME280;67787;50.074;21.904;2024-01-06T07:36:02;98221.10;;;2.69;79.21
36138;BME280;67787;50.074;21.904;2024-01-06T07:38:30;98215.25;;;2.70;79.30
36138;BME280;67787;50.074;21.904;2024-01-06T07:40:59;98212.47;;;2.73;79.38
36138;BME280;67787;50.074;21.904;2024-01-06T07:43:26;98207.52;;;2.74;78.90
36138;BME280;67787;50.074;21.904;2024-01-06T07:45:54;98216.49;;;2.76;79.29
36138;BME280;67787;50.074;21.904;2024-01-06T07:48:22;98218.70;;;2.78;79.48
36138;BME280;67787;50.074;21.904;2024-01-06T07:50:50;98217.84;;;2.77;79.40
36138;BME280;67787;50.074;21.904;2024-01-06T07:53:18;98215.30;;;2.76;79.23
36138;BME280;67787;50.074;21.904;2024-01-06T07:55:46;98216.54;;;2.75;79.12
36138;BME280;67787;50.074;21.904;2024-01-06T07:58:14;98218.42;;;2.76;79.42
36138;BME280;67787;50.074;21.904;2024-01-06T08:00:43;98226.10;;;2.77;79.33
36138;BME280;67787;50.074;21.904;2024-01-06T08:03:11;98229.02;;;2.78;79.29
36138;BME280;67787;50.074;21.904;2024-01-06T08:05:39;98228.96;;;2.79;79.33
36138;BME280;67787;50.074;21.904;2024-01-06T08:08:07;98225.77;;;2.79;79.26
36138;BME280;67787;50.074;21.904;2024-01-06T08:10:35;98224.32;;;2.80;79.36
36138;BME280;67787;50.074;21.904;2024-01-06T08:13:03;98222.73;;;2.77;79.46
36138;BME280;67787;50.074;21.904;2024-01-06T08:15:31;98219.73;;;2.75;79.24
36138;BME280;67787;50.074;21.904;2024-01-06T08:18:00;98222.09;;;2.76;79.50
36138;BME280;67787;50.074;21.904;2024-01-06T08:20:28;98221.07;;;2.79;79.45
36138;BME280;67787;50.074;21.904;2024-01-06T08:22:56;98224.13;;;2.81;79.55
36138;BME280;67787;50.074;21.904;2024-01-06T08:25:24;98226.81;;;2.80;79.49
36138;BME280;67787;50.074;21.904;2024-01-06T08:27:52;98228.95;;;2.82;79.55
36138;BME280;67787;50.074;21.904;2024-01-06T08:30:20;98227.39;;;2.82;79.68
36138;BME280;67787;50.074;21.904;2024-01-06T08:32:49;98227.77;;;2.81;79.48
36138;BME280;67787;50.074;21.904;2024-01-06T08:35:17;98228.63;;;2.82;79.44
36138;BME280;67787;50.074;21.904;2024-01-06T08:37:45;98230.78;;;2.81;79.78
36138;BME280;67787;50.074;21.904;2024-01-06T08:40:13;98237.86;;;2.79;79.70
36138;BME280;67787;50.074;21.904;2024-01-06T08:42:41;98242.07;;;2.79;79.61
36138;BME280;67787;50.074;21.904;2024-01-06T08:45:09;98243.85;;;2.79;79.86
36138;BME280;67787;50.074;21.904;2024-01-06T08:47:37;98243.65;;;2.76;79.81
36138;BME280;67787;50.074;21.904;2024-01-06T08:50:05;98246.09;;;2.76;79.86
36138;BME280;67787;50.074;21.904;2024-01-06T08:52:34;98246.30;;;2.75;79.63
36138;BME280;67787;50.074;21.904;2024-01-06T08:55:01;98247.69;;;2.76;79.87
36138;BME280;67787;50.074;21.904;2024-01-06T08:57:29;98250.24;;;2.77;79.89
36138;BME280;67787;50.074;21.904;2024-01-06T08:59:58;98251.23;;;2.78;79.54
36138;BME280;67787;50.074;21.904;2024-01-06T09:02:26;98249.88;;;2.81;79.70
36138;BME280;67787;50.074;21.904;2024-01-06T09:04:54;98245.57;;;2.82;79.72
36138;BME280;67787;50.074;21.904;2024-01-06T09:07:22;98240.30;;;2.86;79.93
36138;BME280;67787;50.074;21.904;2024-01-06T09:09:50;98235.89;;;2.90;79.62
36138;BME280;67787;50.074;21.904;2024-01-06T09:12:19;98237.95;;;2.94;79.56
36138;BME280;67787;50.074;21.904;2024-01-06T09:14:46;98237.34;;;2.99;79.86
36138;BME280;67787;50.074;21.904;2024-01-06T09:17:15;98234.56;;;3.05;79.96
36138;BME280;67787;50.074;21.904;2024-01-06T09:19:43;98233.27;;;3.09;79.67
36138;BME280;67787;50.074;21.904;2024-01-06T09:22:11;98233.80;;;3.12;80.03
36138;BME280;67787;50.074;21.904;2024-01-06T09:24:40;98229.73;;;3.16;79.90
36138;BME280;67787;50.074;21.904;2024-01-06T09:27:08;98232.83;;;3.23;80.00
36138;BME280;67787;50.074;21.904;2024-01-06T09:29:36;98229.45;;;3.30;79.94
36138;BME280;67787;50.074;21.904;2024-01-06T09:32:04;98226.96;;;3.38;80.11
36138;BME280;67787;50.074;21.904;2024-01-06T09:34:32;98226.07;;;3.44;80.04
36138;BME280;67787;50.074;21.904;2024-01-06T09:37:04;98226.55;;;3.51;80.01
36138;BME280;67787;50.074;21.904;2024-01-06T09:39:32;98227.95;;;3.57;80.22
36138;BME280;67787;50.074;21.904;2024-01-06T09:42:00;98226.11;;;3.65;80.19
36138;BME280;67787;50.074;21.904;2024-01-06T09:44:29;98226.02;;;3.73;80.19
36138;BME280;67787;50.074;21.904;2024-01-06T09:46:58;98231.02;;;3.80;80.20
36138;BME280;67787;50.074;21.904;2024-01-06T09:49:28;98231.62;;;3.88;80.13
36138;BME280;67787;50.074;21.904;2024-01-06T09:52:01;98233.77;;;3.93;80.10
36138;BME280;67787;50.074;21.904;2024-01-06T09:54:30;98233.25;;;3.99;80.10
36138;BME280;67787;50.074;21.904;2024-01-06T09:57:03;98233.90;;;4.06;80.06
36138;BME280;67787;50.074;21.904;2024-01-06T09:59:34;98224.58;;;4.09;80.01
36138;BME280;67787;50.074;21.904;2024-01-06T10:02:04;98221.17;;;4.14;80.16
36138;BME280;67787;50.074;21.904;2024-01-06T10:04:32;98214.44;;;4.18;80.14
36138;BME280;67787;50.074;21.904;2024-01-06T10:07:01;98213.02;;;4.21;80.11
36138;BME280;67787;50.074;21.904;2024-01-06T10:09:28;98209.30;;;4.22;80.18
36138;BME280;67787;50.074;21.904;2024-01-06T10:11:56;98209.64;;;4.25;80.07
36138;BME280;67787;50.074;21.904;2024-01-06T10:14:25;98206.27;;;4.25;80.18
36138;BME280;67787;50.074;21.904;2024-01-06T10:16:53;98202.34;;;4.26;80.08
36138;BME280;67787;50.074;21.904;2024-01-06T10:19:23;98200.10;;;4.26;80.11
36138;BME280;67787;50.074;21.904;2024-01-06T10:21:51;98195.36;;;4.23;80.19
36138;BME280;67787;50.074;21.904;2024-01-06T10:24:19;98192.69;;;4.21;80.08
36138;BME280;67787;50.074;21.904;2024-01-06T10:26:47;98190.91;;;4.21;80.14
36138;BME280;67787;50.074;21.904;2024-01-06T10:29:15;98185.16;;;4.21;80.23
36138;BME280;67787;50.074;21.904;2024-01-06T10:31:43;98181.36;;;4.19;80.41
36138;BME280;67787;50.074;21.904;2024-01-06T10:34:11;98184.21;;;4.18;80.12
36138;BME280;67787;50.074;21.904;2024-01-06T10:36:39;98189.21;;;4.20;80.18
36138;BME280;67787;50.074;21.904;2024-01-06T10:39:07;98193.56;;;4.20;80.25
36138;BME280;67787;50.074;21.904;2024-01-06T10:41:38;98193.31;;;4.22;80.35
36138;BME280;67787;50.074;21.904;2024-01-06T10:44:09;98193.67;;;4.22;80.12
36138;BME280;67787;50.074;21.904;2024-01-06T10:46:38;98189.65;;;4.22;80.27
36138;BME280;67787;50.074;21.904;2024-01-06T10:49:09;98185.41;;;4.22;80.25
36138;BME280;67787;50.074;21.904;2024-01-06T10:51:40;98175.98;;;4.21;80.26
36138;BME280;67787;50.074;21.904;2024-01-06T10:54:08;98182.63;;;4.21;80.20
36138;BME280;67787;50.074;21.904;2024-01-06T10:56:38;98188.35;;;4.23;80.35
36138;BME280;67787;50.074;21.904;2024-01-06T10:59:07;98183.30;;;4.25;80.31
36138;BME280;67787;50.074;21.904;2024-01-06T11:03:36;98176.31;;;4.30;80.45
36138;BME280;67787;50.074;21.904;2024-01-06T11:06:06;98174.56;;;4.27;80.57
36138;BME280;67787;50.074;21.904;2024-01-06T11:08:48;98171.74;;;4.27;80.26
36138;BME280;67787;50.074;21.904;2024-01-06T11:11:20;98170.17;;;4.27;80.41
36138;BME280;67787;50.074;21.904;2024-01-06T11:13:49;98167.31;;;4.25;80.35
36138;BME280;67787;50.074;21.904;2024-01-06T11:16:36;98170.27;;;4.25;80.58
36138;BME280;67787;50.074;21.904;2024-01-06T11:24:47;98152.94;;;4.25;80.59
36138;BME280;67787;50.074;21.904;2024-01-06T11:27:18;98153.27;;;4.25;80.45
36138;BME280;67787;50.074;21.904;2024-01-06T11:29:47;98150.27;;;4.26;80.34
36138;BME280;67787;50.074;21.904;2024-01-06T11:32:24;98151.70;;;4.28;80.45
36138;BME280;67787;50.074;21.904;2024-01-06T11:34:54;98149.24;;;4.28;80.28
36138;BME280;67787;50.074;21.904;2024-01-06T11:43:08;98160.34;;;4.33;80.35
36138;BME280;67787;50.074;21.904;2024-01-06T11:45:38;98165.01;;;4.31;80.30
36138;BME280;67787;50.074;21.904;2024-01-06T11:48:10;98163.79;;;4.28;80.29
36138;BME280;67787;50.074;21.904;2024-01-06T11:50:41;98174.45;;;4.23;80.30
36138;BME280;67787;50.074;21.904;2024-01-06T11:53:09;98174.60;;;4.24;80.52
36138;BME280;67787;50.074;21.904;2024-01-06T11:55:39;98171.38;;;4.22;80.32
36138;BME280;67787;50.074;21.904;2024-01-06T11:58:07;98169.15;;;4.21;80.38
36138;BME280;67787;50.074;21.904;2024-01-06T12:00:35;98177.51;;;4.19;80.37
36138;BME280;67787;50.074;21.904;2024-01-06T12:03:09;98179.20;;;4.17;80.30
36138;BME280;67787;50.074;21.904;2024-01-06T12:05:37;98182.85;;;4.15;80.38
36138;BME280;67787;50.074;21.904;2024-01-06T12:08:06;98184.92;;;4.12;80.45
36138;BME280;67787;50.074;21.904;2024-01-06T12:10:36;98190.08;;;4.11;80.26
36138;BME280;67787;50.074;21.904;2024-01-06T12:13:06;98193.61;;;4.11;80.31
36138;BME280;67787;50.074;21.904;2024-01-06T12:15:39;98196.50;;;4.07;80.44
36138;BME280;67787;50.074;21.904;2024-01-06T12:18:08;98197.77;;;4.03;80.32
36138;BME280;67787;50.074;21.904;2024-01-06T12:20:36;98195.85;;;4.03;80.37
36138;BME280;67787;50.074;21.904;2024-01-06T12:23:04;98199.10;;;4.01;80.33
36138;BME280;67787;50.074;21.904;2024-01-06T12:25:34;98205.70;;;4.02;80.36
36138;BME280;67787;50.074;21.904;2024-01-06T12:28:07;98209.81;;;4.04;80.29
36138;BME280;67787;50.074;21.904;2024-01-06T12:30:36;98215.55;;;4.02;80.28
36138;BME280;67787;50.074;21.904;2024-01-06T12:33:06;98216.85;;;3.98;80.35
36138;BME280;67787;50.074;21.904;2024-01-06T12:35:34;98216.80;;;3.93;80.43
36138;BME280;67787;50.074;21.904;2024-01-06T12:38:03;98217.70;;;3.92;80.34
36138;BME280;67787;50.074;21.904;2024-01-06T12:40:36;98214.09;;;3.91;80.17
36138;BME280;67787;50.074;21.904;2024-01-06T12:43:08;98212.50;;;3.88;80.11
36138;BME280;67787;50.074;21.904;2024-01-06T12:45:36;98212.27;;;3.86;80.60
36138;BME280;67787;50.074;21.904;2024-01-06T12:48:04;98213.20;;;3.82;80.25
36138;BME280;67787;50.074;21.904;2024-01-06T12:50:32;98214.83;;;3.78;80.23
36138;BME280;67787;50.074;21.904;2024-01-06T12:53:00;98220.34;;;3.77;80.36
36138;BME280;67787;50.074;21.904;2024-01-06T12:55:28;98223.48;;;3.74;80.31
36138;BME280;67787;50.074;21.904;2024-01-06T12:57:56;98221.82;;;3.69;80.31
36138;BME280;67787;50.074;21.904;2024-01-06T13:00:24;98221.70;;;3.65;80.22
36138;BME280;67787;50.074;21.904;2024-01-06T13:02:53;98225.61;;;3.65;80.32
36138;BME280;67787;50.074;21.904;2024-01-06T13:05:21;98226.31;;;3.62;80.32
36138;BME280;67787;50.074;21.904;2024-01-06T13:07:50;98227.45;;;3.60;80.47
36138;BME280;67787;50.074;21.904;2024-01-06T13:10:18;98237.03;;;3.58;80.25
36138;BME280;67787;50.074;21.904;2024-01-06T13:12:46;98235.00;;;3.56;80.52
36138;BME280;67787;50.074;21.904;2024-01-06T13:15:17;98233.66;;;3.55;80.39
36138;BME280;67787;50.074;21.904;2024-01-06T13:17:45;98233.59;;;3.56;80.46
36138;BME280;67787;50.074;21.904;2024-01-06T13:20:14;98231.37;;;3.56;80.43